x

Central Gulf Of Alaska - 265nm West Of Cape Ommaney, Akk (46085) Wave Buoy

5:50am - Tue 2nd Sep 2014 All times are UTC.

  • Sig Wave height 6.9ft
  • Peak Period 7s
  • Wind
    22mph, 27mph gusts
  • Sea Temp 58°f
  • Air Temp 57°f
  • Sea Pressure 1017.8mb

More Historic Weather Station data

Upgrade to MSW Pro to gain access to the past 30 days of data for over 8000 Wavebouys and Weather Stations around the globe.

Join Pro

Comparision Forecast

View Surf forecast
   
Tue 09/02 5:50am 7ft 7s 22 27 mph 1017.8mb 58f 57f
4:50am 7ft 9s 22 25 mph 1017.1mb 58f 58f
3:50am 7.5ft 8s 20 25 mph 1016.4mb 58f 58f
2:50am 7ft 7s 22 27 mph 1015.9mb 58f 58f
1:50am 7.5ft 7s 22 25 mph 1015.3mb 58f 58f
12:50am 8ft 8s 20 25 mph 1014.8mb 58f 58f
Mon 09/01 11:50pm 7.5ft 8s 20 25 mph 1014.5mb 58f 58f
10:50pm 7ft 9s 22 27 mph 1014.2mb 58f 58f
9:50pm 7.5ft 8s 22 25 mph 1013.7mb 58f 58f
8:50pm 7.5ft 6s 22 27 mph 1013.3mb 58f 58f
7:50pm 7ft 9s 22 27 mph 1012.9mb 58f 57f
6:50pm 6.5ft 9s 22 25 mph 1012.5mb 58f 57f
5:50pm 5.5ft 9s 22 25 mph 1012mb 58f 57f
4:50pm 6ft 5s 20 22 mph 1011.6mb 58f 57f
3:50pm 6ft 9s 20 25 mph 1011.1mb 58f 57f
2:50pm 6ft 10s 20 25 mph 1010.8mb 58f 57f
1:50pm 6ft 10s 20 25 mph 1010.4mb 58f 57f
12:50pm 6.5ft 12s 18 22 mph 1010.3mb 58f 57f
11:50am 7ft 9s 20 22 mph 1010.1mb 58f 57f
10:50am 7.5ft 8s 18 20 mph 1010mb 58f 57f
9:50am 7.5ft 8s 18 20 mph 1009.8mb 58f 57f
8:50am 7ft 10s 20 22 mph 1009.5mb 58f 57f
7:50am 7ft 9s 20 25 mph 1009.1mb 58f 57f
6:50am 6ft 7s 18 22 mph 1008.7mb 58f 57f
5:50am 5ft 7s 18 20 mph 1008.2mb 58f 58f
4:50am 4.5ft 7s 18 20 mph 1007.6mb 58f 57f
3:50am 4.5ft 6s 18 20 mph 1006.8mb 58f 57f
2:50am 4.5ft 13s 13 18 mph 1006.2mb 58f 57f
1:50am 4.5ft 6s 13 16 mph 1005.5mb 59f 58f
12:50am 4.5ft 5s 13 16 mph 1004.7mb 59f 58f
Sun 08/31 11:50pm 4.5ft 7s 13 16 mph 1004.1mb 58f 57f
10:50pm 4.5ft 7s 11 16 mph 1003.6mb 58f 58f
9:50pm 5ft 14s 13 16 mph 1003.4mb 58f 58f
8:50pm 4.5ft 6s 7 9 mph 1003.3mb 58f 57f
7:50pm 4.5ft 7s 7 9 mph 1003.1mb 58f 57f
6:50pm 4.5ft 14s 7
mph
1002.8mb 58f 57f
5:50pm 4.5ft 12s 4
mph
1002.4mb 58f 57f
4:50pm 4.5ft 14s 7
mph
1002mb 58f 57f
3:50pm 4ft 14s 4 7 mph 1001.4mb 58f 57f
2:50pm 4.5ft 14s 9 11 mph 1001.2mb 58f 56f
1:50pm 4.5ft 13s 7 9 mph 1000.9mb 58f 56f
12:50pm 4.5ft 14s 4 7 mph 1000.6mb 58f 56f
11:50am 4.5ft 7s 9 11 mph 1000.9mb 58f 56f
10:50am 5ft 6s 11 13 mph 1000.8mb 58f 56f
9:50am 5ft 7s 13 16 mph 1001.1mb 58f 57f
8:50am 5ft 7s 13 16 mph 1001.4mb 58f 56f
7:50am 5ft 7s 13 16 mph 1001.7mb 58f 56f
6:50am 5ft 7s 16 18 mph 1002.3mb 58f 56f
5:50am 5.5ft 8s 13 16 mph 1002.7mb 58f 56f
4:50am 5.5ft 8s 16 18 mph 1003.1mb 58f 56f
3:50am 6ft 7s 18 20 mph 1003.6mb 58f 56f
2:50am 6ft 14s 18 20 mph 1004.1mb 58f 56f
1:50am 6ft 8s 18 20 mph 1004.5mb 58f 55f
12:50am 5.5ft 7s 20 22 mph 1004.9mb 58f 55f
Sat 08/30 11:50pm 6ft 7s 18 22 mph 1005.1mb 58f 57f
10:50pm 6ft 7s 18 22 mph 1005.4mb 58f 57f
9:50pm 6.5ft 8s 16 18 mph 1005.6mb 58f 58f
8:50pm 6ft 8s 18 20 mph 1005.7mb 58f 58f
7:50pm 6.5ft 8s 20 22 mph 1005.7mb 58f 58f
6:50pm 7ft 6s 16 20 mph 1005.7mb 58f 57f
5:50pm 6ft 8s 18 22 mph 1005.7mb 58f 57f
4:50pm 6.5ft 9s 20 22 mph 1005.7mb 58f 57f
3:50pm 7ft 8s 18 22 mph 1005.2mb 58f 57f
2:50pm 7ft 8s 16 20 mph 1005.1mb 58f 57f
1:50pm 7ft 8s 18 22 mph 1005mb 58f 57f
12:50pm 8ft 8s 20 25 mph 1005.1mb 58f 58f
11:50am 7.5ft 9s 20 22 mph 1004.9mb 58f 58f
10:50am 7ft 9s 18 22 mph 1004.7mb 58f 58f
9:50am 8ft 8s 18 22 mph 1004.7mb 58f 58f
8:50am 8.5ft 8s 22 25 mph 1004.3mb 58f 58f
7:50am 9ft 8s 22 27 mph 1003.9mb 58f 58f
6:50am 8ft 8s 20 25 mph 1003.9mb 58f 58f
5:50am 7.5ft 9s 22 27 mph 1003.7mb 58f 58f
4:50am 7ft 7s 20 27 mph 1003mb 58f 58f
3:50am 8ft 10s 22 29 mph 1002.5mb 58f 57f
2:50am 7ft 9s 22 27 mph 1002.1mb 58f 58f
1:50am 6.5ft 8s 20 22 mph 1001.7mb 58f 57f
12:50am 7ft 8s 16 20 mph 1001.3mb 58f 58f
Fri 08/29 11:50pm 6ft 9s 18 20 mph 1000.9mb 58f 58f
10:50pm 6.5ft 10s 16 20 mph 1000.6mb 58f 57f
9:50pm 7ft 9s 16 18 mph 1000.2mb 58f 56f
8:50pm 7ft 10s 16 18 mph 999.9mb 58f 57f
7:50pm 7ft 9s 16 18 mph 999.7mb 58f 57f
6:50pm 7ft 10s 13 18 mph 999.9mb 58f 57f
5:50pm 7.5ft 9s 16 18 mph 1000mb 58f 57f
4:50pm 7ft 10s 18 20 mph 999.8mb 58f 57f
3:50pm 7.5ft 10s 16 18 mph 999.5mb 58f 57f
2:50pm 7.5ft 10s 13 18 mph 999.4mb 58f 57f
1:50pm 8ft 11s 11 16 mph 999.4mb 58f 57f
12:50pm 7ft 8s 11 13 mph 999.3mb 58f 56f
11:50am 8ft 10s 11 13 mph 999.1mb 58f 56f
10:50am 8ft 11s 9 11 mph 999.4mb 58f 56f
9:50am 7.5ft 10s 11
mph
999.6mb 58f 57f
8:50am 7ft 10s 7
mph
999.6mb 58f 56f
7:50am 8.5ft 11s 4
mph
999.7mb 58f 57f